GIA154 WIII-WIDD
Flight info
| Callsign | GIA154 |
|---|---|
| Flight time | 1h 13m |
| Altitude | 34000 |
| Route | DOLTA A585 PLB T25 IGUTU |
| Aircraft | B738/M-SDE2E3FGHIRWXY/LB1 |
Departure
| Time | 2026-05-04 08:16 |
|---|---|
| Airport | Soekarno-Hatta International Airport (WIII) |
Arrival
| Time | 2026-05-04 09:29 |
|---|---|
| Airport | Hang Nadim International Airport (WIDD) |
| Time | Latitude | Longitude | Altitude | Speed | Heading |
|---|---|---|---|---|---|
| 2026-05-04 07:54 | -6.11650 | 106.66756 | 47 ft | 0 kts | 159° |
| 2026-05-04 08:04 | -6.11641 | 106.66752 | 47 ft | 2 kts | 158° |
| 2026-05-04 08:05 | -6.11627 | 106.66747 | 47 ft | 2 kts | 159° |
| 2026-05-04 08:05 | -6.11613 | 106.66741 | 47 ft | 2 kts | 158° |
| 2026-05-04 08:05 | -6.11599 | 106.66736 | 47 ft | 2 kts | 158° |
| 2026-05-04 08:05 | -6.11585 | 106.66730 | 47 ft | 2 kts | 159° |
| 2026-05-04 08:06 | -6.11576 | 106.66727 | 47 ft | 1 kts | 159° |
| 2026-05-04 08:06 | -6.11565 | 106.66721 | 47 ft | 1 kts | 133° |
| 2026-05-04 08:06 | -6.11557 | 106.66709 | 47 ft | 2 kts | 111° |
| 2026-05-04 08:06 | -6.11555 | 106.66695 | 47 ft | 1 kts | 86° |
| 2026-05-04 08:08 | -6.11559 | 106.66679 | 47 ft | 0 kts | 67° |
| 2026-05-04 08:10 | -6.11551 | 106.66702 | 47 ft | 3 kts | 69° |
| 2026-05-04 08:11 | -6.11540 | 106.66729 | 47 ft | 5 kts | 69° |
| 2026-05-04 08:11 | -6.11491 | 106.66854 | 47 ft | 13 kts | 69° |
| 2026-05-04 08:11 | -6.11438 | 106.66942 | 47 ft | 16 kts | 24° |
| 2026-05-04 08:12 | -6.11320 | 106.66906 | 47 ft | 19 kts | 338° |
| 2026-05-04 08:12 | -6.11186 | 106.66850 | 47 ft | 17 kts | 340° |
| 2026-05-04 08:12 | -6.11110 | 106.66866 | 47 ft | 10 kts | 60° |
| 2026-05-04 08:12 | -6.11073 | 106.66939 | 47 ft | 9 kts | 53° |
| 2026-05-04 08:13 | -6.11058 | 106.66955 | 47 ft | 3 kts | 39° |
| 2026-05-04 08:13 | -6.11032 | 106.66967 | 47 ft | 5 kts | 13° |
| 2026-05-04 08:13 | -6.10989 | 106.66969 | 47 ft | 6 kts | 334° |
| 2026-05-04 08:13 | -6.10950 | 106.66928 | 47 ft | 9 kts | 297° |
| 2026-05-04 08:14 | -6.10917 | 106.66872 | 47 ft | 9 kts | 284° |
| 2026-05-04 08:14 | -6.10940 | 106.66793 | 47 ft | 19 kts | 248° |
| 2026-05-04 08:14 | -6.11093 | 106.66407 | 47 ft | 97 kts | 247° |
| 2026-05-04 08:16 | -6.10885 | 106.57255 | 3124 ft | 256 kts | 290° |
| 2026-05-04 08:16 | -6.10095 | 106.55638 | 3728 ft | 266 kts | 310° |
| 2026-05-04 08:16 | -6.08679 | 106.54441 | 4384 ft | 273 kts | 332° |
| 2026-05-04 08:17 | -6.06936 | 106.53669 | 5134 ft | 276 kts | 341° |
| 2026-05-04 08:17 | -6.05110 | 106.53024 | 5891 ft | 280 kts | 342° |
| 2026-05-04 08:17 | -6.03268 | 106.52374 | 6658 ft | 284 kts | 341° |
| 2026-05-04 08:17 | -6.01397 | 106.51681 | 7425 ft | 287 kts | 341° |
| 2026-05-04 08:19 | -5.87449 | 106.46278 | 11605 ft | 344 kts | 340° |
| 2026-05-04 08:19 | -5.85213 | 106.45411 | 12217 ft | 351 kts | 340° |
| 2026-05-04 08:20 | -5.82891 | 106.44509 | 12915 ft | 355 kts | 340° |
| 2026-05-04 08:20 | -5.80582 | 106.43612 | 13625 ft | 359 kts | 340° |
| 2026-05-04 08:20 | -5.78242 | 106.42701 | 14318 ft | 363 kts | 340° |
| 2026-05-04 08:20 | -5.75883 | 106.41784 | 14996 ft | 367 kts | 340° |
| 2026-05-04 08:21 | -5.73480 | 106.40850 | 15680 ft | 371 kts | 340° |
| 2026-05-04 08:21 | -5.71074 | 106.39915 | 16335 ft | 374 kts | 340° |
| 2026-05-04 08:21 | -5.68653 | 106.38975 | 16969 ft | 378 kts | 340° |
| 2026-05-04 08:21 | -5.66157 | 106.38004 | 17589 ft | 382 kts | 340° |
| 2026-05-04 08:22 | -5.63681 | 106.37043 | 18179 ft | 386 kts | 340° |
| 2026-05-04 08:22 | -5.61153 | 106.36061 | 18786 ft | 389 kts | 340° |
| 2026-05-04 08:24 | -5.42845 | 106.28960 | 22447 ft | 414 kts | 341° |
| 2026-05-04 08:24 | -5.40157 | 106.27917 | 22963 ft | 417 kts | 341° |
| 2026-05-04 08:24 | -5.37438 | 106.26862 | 23460 ft | 419 kts | 341° |
| 2026-05-04 08:24 | -5.34719 | 106.25806 | 23790 ft | 425 kts | 341° |
| 2026-05-04 08:25 | -5.31927 | 106.24724 | 23820 ft | 423 kts | 341° |
| 2026-05-04 08:25 | -5.29208 | 106.23669 | 23821 ft | 420 kts | 341° |
| 2026-05-04 08:25 | -5.26473 | 106.22607 | 23823 ft | 420 kts | 341° |
| 2026-05-04 08:25 | -5.23736 | 106.21545 | 23822 ft | 421 kts | 341° |
| 2026-05-04 08:26 | -5.21002 | 106.20485 | 23823 ft | 420 kts | 341° |
| 2026-05-04 08:27 | -5.01465 | 106.12912 | 26853 ft | 438 kts | 341° |
| 2026-05-04 08:28 | -4.98613 | 106.11807 | 27235 ft | 441 kts | 341° |
| 2026-05-04 08:28 | -4.95702 | 106.10680 | 27689 ft | 443 kts | 341° |
| 2026-05-04 08:28 | -4.92837 | 106.09570 | 28067 ft | 445 kts | 341° |
| 2026-05-04 08:28 | -4.89954 | 106.08453 | 28420 ft | 449 kts | 341° |
| 2026-05-04 08:29 | -4.87026 | 106.07319 | 28845 ft | 450 kts | 341° |
| 2026-05-04 08:29 | -4.84081 | 106.06178 | 29271 ft | 452 kts | 341° |
| 2026-05-04 08:29 | -4.81154 | 106.05043 | 29838 ft | 450 kts | 341° |
| 2026-05-04 08:31 | -4.61209 | 105.97312 | 33430 ft | 437 kts | 342° |
| 2026-05-04 08:33 | -4.41177 | 105.89562 | 33828 ft | 441 kts | 341° |
| 2026-05-04 08:33 | -4.38315 | 105.88454 | 33830 ft | 441 kts | 341° |
| 2026-05-04 08:35 | -4.15366 | 105.79582 | 33823 ft | 441 kts | 341° |
| 2026-05-04 08:35 | -4.09582 | 105.77345 | 33821 ft | 443 kts | 341° |
| 2026-05-04 08:37 | -3.89441 | 105.69559 | 33819 ft | 441 kts | 341° |
| 2026-05-04 08:38 | -3.83715 | 105.67348 | 33816 ft | 441 kts | 341° |
| 2026-05-04 08:38 | -3.77966 | 105.65128 | 33811 ft | 441 kts | 341° |
| 2026-05-04 08:40 | -3.55019 | 105.56267 | 33809 ft | 440 kts | 341° |
| 2026-05-04 08:41 | -3.49281 | 105.54052 | 33806 ft | 440 kts | 341° |
| 2026-05-04 08:41 | -3.43573 | 105.51850 | 33807 ft | 440 kts | 341° |
| 2026-05-04 08:42 | -3.37864 | 105.49647 | 33807 ft | 440 kts | 341° |
| 2026-05-04 08:42 | -3.32154 | 105.47444 | 33804 ft | 439 kts | 341° |
| 2026-05-04 08:43 | -3.26420 | 105.45232 | 33806 ft | 439 kts | 341° |
| 2026-05-04 08:43 | -3.20698 | 105.43024 | 33805 ft | 439 kts | 341° |
| 2026-05-04 08:44 | -3.14985 | 105.40821 | 33803 ft | 439 kts | 341° |
| 2026-05-04 08:46 | -2.92168 | 105.32022 | 33792 ft | 439 kts | 341° |
| 2026-05-04 08:46 | -2.86470 | 105.29823 | 33793 ft | 440 kts | 341° |
| 2026-05-04 08:47 | -2.80723 | 105.27608 | 33798 ft | 440 kts | 341° |
| 2026-05-04 08:47 | -2.75034 | 105.25413 | 33808 ft | 440 kts | 341° |
| 2026-05-04 08:48 | -2.69302 | 105.23202 | 33812 ft | 440 kts | 341° |
| 2026-05-04 08:48 | -2.63573 | 105.20996 | 33811 ft | 440 kts | 341° |
| 2026-05-04 08:49 | -2.57843 | 105.18793 | 33810 ft | 440 kts | 341° |
| 2026-05-04 08:50 | -2.37725 | 105.11034 | 33814 ft | 441 kts | 341° |
| 2026-05-04 08:51 | -2.31967 | 105.08815 | 33815 ft | 441 kts | 341° |
| 2026-05-04 08:51 | -2.26210 | 105.06603 | 33819 ft | 442 kts | 341° |
| 2026-05-04 08:52 | -2.20469 | 105.04397 | 33815 ft | 441 kts | 341° |
| 2026-05-04 08:52 | -2.14725 | 105.02188 | 33806 ft | 443 kts | 341° |
| 2026-05-04 08:54 | -1.91660 | 104.93311 | 33799 ft | 443 kts | 341° |
| 2026-05-04 08:55 | -1.85920 | 104.91101 | 33804 ft | 444 kts | 341° |
| 2026-05-04 08:55 | -1.80120 | 104.88864 | 33800 ft | 444 kts | 341° |
| 2026-05-04 09:01 | -1.19592 | 104.65586 | 33800 ft | 445 kts | 340° |
| 2026-05-04 09:01 | -1.13818 | 104.63364 | 33800 ft | 443 kts | 341° |
| 2026-05-04 09:01 | -1.10930 | 104.62254 | 33659 ft | 444 kts | 341° |
| 2026-05-04 09:02 | -1.08056 | 104.61148 | 33363 ft | 441 kts | 341° |
| 2026-05-04 09:02 | -1.05221 | 104.60058 | 33070 ft | 436 kts | 341° |
| 2026-05-04 09:02 | -1.02367 | 104.58968 | 32774 ft | 432 kts | 341° |
| 2026-05-04 09:02 | -0.99538 | 104.57947 | 32486 ft | 431 kts | 342° |
| 2026-05-04 09:03 | -0.96721 | 104.56977 | 32232 ft | 430 kts | 343° |
| 2026-05-04 09:03 | -0.93887 | 104.56020 | 31980 ft | 430 kts | 343° |
| 2026-05-04 09:03 | -0.91027 | 104.55058 | 31723 ft | 427 kts | 343° |
| 2026-05-04 09:03 | -0.88234 | 104.54117 | 31472 ft | 425 kts | 343° |
| 2026-05-04 09:04 | -0.85415 | 104.53162 | 31219 ft | 424 kts | 343° |
| 2026-05-04 09:04 | -0.82633 | 104.52218 | 30967 ft | 422 kts | 342° |
| 2026-05-04 09:04 | -0.79854 | 104.51270 | 30716 ft | 420 kts | 342° |
| 2026-05-04 09:04 | -0.77087 | 104.50324 | 30462 ft | 419 kts | 342° |
| 2026-05-04 09:05 | -0.74311 | 104.49374 | 30211 ft | 418 kts | 342° |
| 2026-05-04 09:05 | -0.71581 | 104.48438 | 29962 ft | 416 kts | 342° |
| 2026-05-04 09:05 | -0.68844 | 104.47499 | 29712 ft | 414 kts | 342° |
| 2026-05-04 09:05 | -0.66095 | 104.46555 | 29460 ft | 412 kts | 342° |
| 2026-05-04 09:06 | -0.63389 | 104.45626 | 29208 ft | 411 kts | 342° |
| 2026-05-04 09:07 | -0.44653 | 104.39196 | 27491 ft | 400 kts | 342° |
| 2026-05-04 09:08 | -0.42013 | 104.38290 | 27247 ft | 398 kts | 342° |
| 2026-05-04 09:08 | -0.39395 | 104.37392 | 27005 ft | 397 kts | 342° |
| 2026-05-04 09:08 | -0.36767 | 104.36491 | 26760 ft | 395 kts | 342° |
| 2026-05-04 09:08 | -0.34185 | 104.35604 | 26520 ft | 394 kts | 342° |
| 2026-05-04 09:09 | -0.31594 | 104.34715 | 26268 ft | 390 kts | 342° |
| 2026-05-04 09:09 | -0.29014 | 104.33830 | 25899 ft | 385 kts | 342° |
| 2026-05-04 09:09 | -0.26490 | 104.32962 | 25449 ft | 383 kts | 343° |
| 2026-05-04 09:09 | -0.23991 | 104.32111 | 24977 ft | 381 kts | 343° |
| 2026-05-04 09:10 | -0.21462 | 104.31343 | 24503 ft | 378 kts | 347° |
| 2026-05-04 09:10 | -0.18890 | 104.30750 | 24027 ft | 375 kts | 350° |
| 2026-05-04 09:10 | -0.16351 | 104.30257 | 23557 ft | 373 kts | 352° |
| 2026-05-04 09:10 | -0.13796 | 104.29796 | 23087 ft | 371 kts | 352° |
| 2026-05-04 09:11 | -0.11255 | 104.29341 | 22615 ft | 369 kts | 352° |
| 2026-05-04 09:11 | -0.08706 | 104.28879 | 22144 ft | 367 kts | 352° |
| 2026-05-04 09:11 | -0.06220 | 104.28421 | 21687 ft | 366 kts | 351° |
| 2026-05-04 09:11 | -0.03712 | 104.27953 | 21219 ft | 364 kts | 351° |
| 2026-05-04 09:12 | -0.01235 | 104.27483 | 20756 ft | 363 kts | 351° |
| 2026-05-04 09:12 | 0.01279 | 104.27003 | 20283 ft | 361 kts | 351° |
| 2026-05-04 09:14 | 0.18315 | 104.23724 | 17072 ft | 349 kts | 351° |
| 2026-05-04 09:14 | 0.20694 | 104.23266 | 16626 ft | 347 kts | 351° |
| 2026-05-04 09:14 | 0.23062 | 104.22810 | 16174 ft | 346 kts | 351° |
| 2026-05-04 09:14 | 0.25434 | 104.22353 | 15726 ft | 344 kts | 351° |
| 2026-05-04 09:15 | 0.27776 | 104.21902 | 15281 ft | 342 kts | 350° |
| 2026-05-04 09:15 | 0.30110 | 104.21452 | 14834 ft | 340 kts | 350° |
| 2026-05-04 09:15 | 0.32407 | 104.21010 | 14398 ft | 338 kts | 350° |
| 2026-05-04 09:15 | 0.34733 | 104.20562 | 13960 ft | 337 kts | 350° |
| 2026-05-04 09:17 | 0.51905 | 104.17252 | 10795 ft | 291 kts | 349° |
| 2026-05-04 09:18 | 0.53885 | 104.16870 | 10417 ft | 296 kts | 349° |
| 2026-05-04 09:18 | 0.55929 | 104.16478 | 10052 ft | 296 kts | 349° |
| 2026-05-04 09:18 | 0.57940 | 104.16097 | 9877 ft | 285 kts | 349° |
| 2026-05-04 09:18 | 0.59868 | 104.15734 | 9514 ft | 285 kts | 349° |
| 2026-05-04 09:19 | 0.61817 | 104.15369 | 9132 ft | 278 kts | 349° |
| 2026-05-04 09:19 | 0.63702 | 104.15014 | 8791 ft | 276 kts | 349° |
| 2026-05-04 09:19 | 0.65614 | 104.14654 | 8445 ft | 276 kts | 349° |
| 2026-05-04 09:19 | 0.67490 | 104.14300 | 8100 ft | 274 kts | 349° |
| 2026-05-04 09:20 | 0.69384 | 104.13945 | 7755 ft | 272 kts | 349° |
| 2026-05-04 09:20 | 0.71244 | 104.13615 | 7417 ft | 270 kts | 350° |
| 2026-05-04 09:20 | 0.73079 | 104.13300 | 7182 ft | 265 kts | 350° |
| 2026-05-04 09:20 | 0.74880 | 104.12993 | 7089 ft | 256 kts | 350° |
| 2026-05-04 09:21 | 0.76618 | 104.12694 | 7015 ft | 248 kts | 350° |
| 2026-05-04 09:21 | 0.78287 | 104.12339 | 6916 ft | 240 kts | 342° |
| 2026-05-04 09:21 | 0.79778 | 104.11628 | 6673 ft | 237 kts | 327° |
| 2026-05-04 09:21 | 0.81111 | 104.10677 | 6412 ft | 233 kts | 324° |
| 2026-05-04 09:22 | 0.82412 | 104.09723 | 6158 ft | 232 kts | 325° |
| 2026-05-04 09:22 | 0.83729 | 104.08802 | 5907 ft | 231 kts | 326° |
| 2026-05-04 09:22 | 0.85068 | 104.07897 | 5659 ft | 229 kts | 327° |
| 2026-05-04 09:22 | 0.86387 | 104.07014 | 5418 ft | 229 kts | 327° |
| 2026-05-04 09:23 | 0.87710 | 104.06128 | 5165 ft | 229 kts | 327° |
| 2026-05-04 09:23 | 0.89038 | 104.05236 | 4916 ft | 226 kts | 327° |
| 2026-05-04 09:23 | 0.90338 | 104.04362 | 4677 ft | 226 kts | 327° |
| 2026-05-04 09:23 | 0.91646 | 104.03483 | 4413 ft | 226 kts | 327° |
| 2026-05-04 09:25 | 1.00457 | 104.01721 | 2738 ft | 192 kts | 40° |
| 2026-05-04 09:25 | 1.01460 | 104.02579 | 2483 ft | 188 kts | 41° |
| 2026-05-04 09:26 | 1.02411 | 104.03406 | 2272 ft | 174 kts | 41° |
| 2026-05-04 09:26 | 1.03300 | 104.04189 | 1954 ft | 162 kts | 41° |
| 2026-05-04 09:26 | 1.04103 | 104.04891 | 1790 ft | 146 kts | 41° |
| 2026-05-04 09:26 | 1.04847 | 104.05542 | 1600 ft | 142 kts | 41° |
| 2026-05-04 09:27 | 1.05583 | 104.06187 | 1436 ft | 142 kts | 41° |
| 2026-05-04 09:27 | 1.06324 | 104.06835 | 1252 ft | 140 kts | 41° |
| 2026-05-04 09:27 | 1.07063 | 104.07483 | 1070 ft | 141 kts | 41° |
| 2026-05-04 09:27 | 1.07800 | 104.08128 | 887 ft | 141 kts | 41° |
| 2026-05-04 09:28 | 1.08541 | 104.08778 | 713 ft | 142 kts | 41° |
| 2026-05-04 09:28 | 1.09299 | 104.09430 | 522 ft | 143 kts | 41° |
| 2026-05-04 09:28 | 1.10053 | 104.10073 | 342 ft | 144 kts | 41° |
| 2026-05-04 09:28 | 1.10800 | 104.10738 | 152 ft | 141 kts | 41° |
| 2026-05-04 09:29 | 1.11461 | 104.11318 | 126 ft | 102 kts | 41° |
| 2026-05-04 09:29 | 1.11807 | 104.11625 | 127 ft | 28 kts | 42° |
| 2026-05-04 09:29 | 1.11915 | 104.11719 | 127 ft | 14 kts | 32° |
| 2026-05-04 09:29 | 1.11999 | 104.11698 | 126 ft | 12 kts | 311° |
| 2026-05-04 09:30 | 1.12052 | 104.11636 | 126 ft | 10 kts | 310° |
| 2026-05-04 09:30 | 1.12096 | 104.11590 | 126 ft | 7 kts | 326° |
| 2026-05-04 09:30 | 1.12139 | 104.11601 | 127 ft | 7 kts | 40° |
| 2026-05-04 09:30 | 1.12181 | 104.11637 | 127 ft | 7 kts | 40° |
| 2026-05-04 09:31 | 1.12226 | 104.11639 | 126 ft | 7 kts | 320° |
| 2026-05-04 09:31 | 1.12256 | 104.11607 | 126 ft | 3 kts | 312° |
| 2026-05-04 09:31 | 1.12258 | 104.11606 | 126 ft | 0 kts | 312° |